createdAt,value
2022-09-18T00:01:13.213Z,13.05
2022-09-18T00:03:41.156Z,12.98
2022-09-18T00:06:13.660Z,12.98
2022-09-18T00:08:43.847Z,12.91
2022-09-18T00:11:14.448Z,12.92
2022-09-18T00:13:42.138Z,12.94
2022-09-18T00:16:11.591Z,12.98
2022-09-18T00:18:38.858Z,12.98
2022-09-18T00:21:09.858Z,12.98
2022-09-18T00:23:37.107Z,12.95
2022-09-18T00:26:05.399Z,12.92
2022-09-18T00:28:32.968Z,12.97
2022-09-18T00:31:18.888Z,12.98
2022-09-18T00:33:45.886Z,12.97
2022-09-18T00:36:16.163Z,13.04
2022-09-18T00:38:43.077Z,13.10
2022-09-18T00:41:15.035Z,13.13
2022-09-18T00:43:41.737Z,13.09
2022-09-18T00:46:32.504Z,13.03
2022-09-18T00:49:16.807Z,13.04
2022-09-18T00:51:45.907Z,13.07
2022-09-18T00:54:44.218Z,12.97
2022-09-18T00:57:16.217Z,12.88
2022-09-18T00:59:45.429Z,12.90
2022-09-18T01:02:13.102Z,12.89
2022-09-18T01:04:39.868Z,12.91
2022-09-18T01:07:36.129Z,12.86
2022-09-18T01:10:03.001Z,12.83
2022-09-18T01:12:51.066Z,12.70
2022-09-18T01:15:17.637Z,12.59
2022-09-18T01:18:22.016Z,12.49
2022-09-18T01:21:10.084Z,12.41
2022-09-18T01:23:55.287Z,12.38
2022-09-18T01:26:54.975Z,12.34
2022-09-18T01:29:43.611Z,12.26
2022-09-18T01:32:25.482Z,12.15
2022-09-18T01:35:06.400Z,12.07
2022-09-18T01:37:41.074Z,12.06
2022-09-18T01:40:32.105Z,12.00
2022-09-18T01:43:02.982Z,11.90
2022-09-18T01:45:33.719Z,11.88
2022-09-18T01:48:07.060Z,11.82
2022-09-18T01:50:39.803Z,11.78
2022-09-18T01:53:13.398Z,11.78
2022-09-18T01:55:45.662Z,11.64
2022-09-18T01:58:19.110Z,11.68
2022-09-18T02:00:51.447Z,11.61
2022-09-18T02:03:26.287Z,11.69
2022-09-18T02:05:57.962Z,11.61
2022-09-18T02:08:38.904Z,11.61
2022-09-18T02:11:12.724Z,11.53
2022-09-18T02:13:54.419Z,11.51
2022-09-18T02:16:46.940Z,11.48
2022-09-18T02:19:23.080Z,11.52
2022-09-18T02:21:52.625Z,11.46
2022-09-18T02:24:22.784Z,11.36
2022-09-18T02:26:52.039Z,11.34
2022-09-18T02:29:22.092Z,11.28
2022-09-18T02:31:50.079Z,11.28
2022-09-18T02:34:18.920Z,11.28
2022-09-18T02:37:26.012Z,11.26
2022-09-18T02:40:19.309Z,11.26
2022-09-18T02:42:57.857Z,11.28
2022-09-18T02:45:39.755Z,11.16
2022-09-18T02:48:09.202Z,11.23
2022-09-18T02:51:09.799Z,11.18
2022-09-18T02:53:46.343Z,11.12
2022-09-18T02:56:18.113Z,11.18
2022-09-18T02:58:51.324Z,11.15
2022-09-18T03:01:20.899Z,11.01
2022-09-18T03:03:48.080Z,11.06
2022-09-18T03:06:14.815Z,11.14
2022-09-18T03:08:41.438Z,11.13
2022-09-18T03:11:08.103Z,11.10
2022-09-18T03:13:34.968Z,11.06
2022-09-18T03:16:01.901Z,11.07
2022-09-18T03:18:28.711Z,10.99
2022-09-18T03:20:55.359Z,11.01
2022-09-18T03:23:23.628Z,10.96
2022-09-18T03:25:51.024Z,11.00
2022-09-18T03:28:18.224Z,10.98
2022-09-18T03:30:45.530Z,10.97
2022-09-18T03:33:12.273Z,10.95
2022-09-18T03:35:39.022Z,10.91
2022-09-18T03:38:05.645Z,10.93
2022-09-18T03:40:32.351Z,10.91
2022-09-18T03:42:58.981Z,10.93
2022-09-18T03:45:25.897Z,10.96
2022-09-18T03:47:52.562Z,10.90
2022-09-18T03:50:19.194Z,10.84
2022-09-18T03:52:50.965Z,10.83
2022-09-18T03:55:18.073Z,10.81
2022-09-18T03:57:46.462Z,10.84
2022-09-18T04:00:14.407Z,10.79
2022-09-18T04:02:41.944Z,10.72
2022-09-18T04:05:10.297Z,10.75
2022-09-18T04:07:36.937Z,10.75
2022-09-18T04:10:04.094Z,10.77
2022-09-18T04:12:30.805Z,10.73
2022-09-18T04:14:57.378Z,10.74
2022-09-18T04:17:24.174Z,10.67
2022-09-18T04:19:53.623Z,10.70
2022-09-18T04:22:21.870Z,10.66
2022-09-18T04:24:50.553Z,10.72
2022-09-18T04:27:17.830Z,10.71
2022-09-18T04:29:44.932Z,10.68
2022-09-18T04:32:11.576Z,10.58
2022-09-18T04:34:38.193Z,10.65
2022-09-18T04:37:09.421Z,10.70
2022-09-18T04:39:36.945Z,10.68
2022-09-18T04:42:04.144Z,10.75
2022-09-18T04:44:31.090Z,10.80
2022-09-18T04:46:57.876Z,10.82
2022-09-18T04:49:24.502Z,10.81
2022-09-18T04:51:51.162Z,10.79
2022-09-18T04:54:17.920Z,10.81
2022-09-18T04:56:44.563Z,10.74
2022-09-18T04:59:13.069Z,10.62
2022-09-18T05:01:39.822Z,10.59
2022-09-18T05:04:06.961Z,10.59
2022-09-18T05:06:34.172Z,10.54
2022-09-18T05:09:00.870Z,10.46
2022-09-18T05:11:28.423Z,10.44
2022-09-18T05:13:56.928Z,10.37
2022-09-18T05:16:24.472Z,10.33
2022-09-18T05:18:52.483Z,10.47
2022-09-18T05:21:20.004Z,10.48
2022-09-18T05:23:47.117Z,10.48
2022-09-18T05:26:16.353Z,10.45
2022-09-18T05:28:47.042Z,10.46
2022-09-18T05:31:13.769Z,10.35
2022-09-18T05:33:41.811Z,10.16
2022-09-18T05:36:09.025Z,10.12
2022-09-18T05:38:35.873Z,9.98
2022-09-18T05:41:03.251Z,9.83
2022-09-18T05:43:30.615Z,9.72
2022-09-18T05:45:58.019Z,9.58
2022-09-18T05:48:24.641Z,9.47
2022-09-18T05:50:52.217Z,9.53
2022-09-18T05:53:21.516Z,9.56
2022-09-18T05:55:48.569Z,9.49
2022-09-18T05:58:17.888Z,9.35
2022-09-18T06:00:45.251Z,9.36
2022-09-18T06:03:14.689Z,9.40
2022-09-18T06:05:42.385Z,9.48
2022-09-18T06:08:11.587Z,9.68
2022-09-18T06:10:39.935Z,9.61
2022-09-18T06:13:18.314Z,9.69
2022-09-18T06:15:47.272Z,9.62
2022-09-18T06:18:15.456Z,9.61
2022-09-18T06:20:44.709Z,9.46
2022-09-18T06:23:14.931Z,9.50
2022-09-18T06:25:41.497Z,9.53
2022-09-18T06:28:08.582Z,9.52
2022-09-18T06:30:36.694Z,9.41
2022-09-18T06:33:10.623Z,9.40
2022-09-18T06:35:40.384Z,9.37
2022-09-18T06:38:08.431Z,9.41
2022-09-18T06:40:36.198Z,9.40
2022-09-18T06:43:03.692Z,9.36
2022-09-18T06:45:31.497Z,9.32
2022-09-18T06:48:04.712Z,9.31
2022-09-18T06:50:31.774Z,9.49
2022-09-18T06:53:12.538Z,9.70
2022-09-18T06:55:39.551Z,9.72
2022-09-18T06:58:06.228Z,9.67
2022-09-18T07:00:33.028Z,9.67
2022-09-18T07:03:03.919Z,9.68
2022-09-18T07:05:32.758Z,9.73
2022-09-18T07:07:59.896Z,9.69
2022-09-18T07:10:26.523Z,9.73
2022-09-18T07:13:00.208Z,9.82
2022-09-18T07:15:27.203Z,9.75
2022-09-18T07:17:58.084Z,9.81
2022-09-18T07:20:25.503Z,9.85
2022-09-18T07:22:57.253Z,9.98
2022-09-18T07:25:24.813Z,10.04
2022-09-18T07:27:52.887Z,10.21
2022-09-18T07:30:20.164Z,10.23
2022-09-18T07:32:47.293Z,10.23
2022-09-18T07:35:13.899Z,10.23
2022-09-18T07:37:40.691Z,10.30
2022-09-18T07:40:09.314Z,10.31
2022-09-18T07:42:36.106Z,10.37
2022-09-18T07:45:02.891Z,10.44
2022-09-18T07:47:29.986Z,10.49
2022-09-18T07:49:56.636Z,10.49
2022-09-18T07:52:23.302Z,10.47
2022-09-18T07:54:50.021Z,10.43
2022-09-18T07:57:16.605Z,10.37
2022-09-18T07:59:43.671Z,10.44
2022-09-18T08:02:23.946Z,10.59
2022-09-18T08:04:50.618Z,10.57
2022-09-18T08:07:17.543Z,10.64
2022-09-18T08:09:44.237Z,10.68
2022-09-18T08:13:07.450Z,10.72
2022-09-18T08:18:32.545Z,10.89
2022-09-18T08:21:30.552Z,10.95
2022-09-18T08:23:58.477Z,11.08
2022-09-18T08:26:39.206Z,11.20
2022-09-18T08:29:09.016Z,11.31
2022-09-18T08:31:39.206Z,11.36
2022-09-18T08:34:08.739Z,11.35
2022-09-18T08:36:40.559Z,11.44
2022-09-18T08:39:19.443Z,11.46
2022-09-18T08:42:28.825Z,11.54
2022-09-18T08:49:00.948Z,11.62
2022-09-18T08:52:09.730Z,11.75
2022-09-18T08:57:32.783Z,11.85
2022-09-18T09:00:05.864Z,11.92
2022-09-18T09:02:38.284Z,12.07
2022-09-18T09:05:15.359Z,12.21
2022-09-18T09:08:04.838Z,12.33
2022-09-18T09:10:59.544Z,12.43
2022-09-18T09:13:55.465Z,12.43
2022-09-18T09:16:45.286Z,12.47
2022-09-18T09:19:39.297Z,12.51
2022-09-18T09:22:19.399Z,12.52
2022-09-18T09:25:08.173Z,12.56
2022-09-18T09:27:49.450Z,12.69
2022-09-18T09:33:20.585Z,12.86
2022-09-18T09:36:19.487Z,12.99
2022-09-18T09:39:07.902Z,12.88
2022-09-18T09:41:49.649Z,12.78
2022-09-18T09:44:19.024Z,12.72
2022-09-18T09:47:20.072Z,12.62
2022-09-18T09:49:54.558Z,12.54
2022-09-18T09:52:29.437Z,12.61
2022-09-18T09:55:30.796Z,12.78
2022-09-18T09:58:16.223Z,12.92
2022-09-18T10:00:51.281Z,13.08
2022-09-18T10:03:35.861Z,13.26
2022-09-18T10:06:16.809Z,13.45
2022-09-18T10:09:16.769Z,13.35
2022-09-18T10:11:58.558Z,13.52
2022-09-18T10:14:28.583Z,13.63
2022-09-18T10:17:00.633Z,13.73
2022-09-18T10:19:46.812Z,13.55
2022-09-18T10:22:28.097Z,13.38
2022-09-18T10:25:01.224Z,13.45
2022-09-18T10:27:28.695Z,13.58
2022-09-18T10:29:55.833Z,13.66
2022-09-18T10:32:43.141Z,13.75
2022-09-18T10:35:31.738Z,13.73
2022-09-18T10:38:01.447Z,13.83
2022-09-18T10:40:38.524Z,13.83
2022-09-18T10:43:16.347Z,13.86
2022-09-18T10:45:43.153Z,14.03
2022-09-18T10:48:25.612Z,14.13
2022-09-18T10:51:02.967Z,14.21
2022-09-18T10:53:33.154Z,14.22
2022-09-18T10:56:17.130Z,13.98
2022-09-18T10:58:45.161Z,13.91
2022-09-18T11:01:13.311Z,13.57
2022-09-18T11:03:49.804Z,13.33
2022-09-18T11:06:24.966Z,13.13
2022-09-18T11:09:00.428Z,13.21
2022-09-18T11:11:39.142Z,13.37
2022-09-18T11:14:15.654Z,13.43
2022-09-18T11:16:51.896Z,13.48
2022-09-18T11:19:27.472Z,13.48
2022-09-18T11:22:02.693Z,13.43
2022-09-18T11:24:33.620Z,13.24
2022-09-18T11:27:18.316Z,13.09
2022-09-18T11:29:45.227Z,13.04
2022-09-18T11:32:25.585Z,12.87
2022-09-18T11:34:57.993Z,12.71
2022-09-18T11:37:33.242Z,12.62
2022-09-18T11:40:15.195Z,12.49
2022-09-18T11:42:46.029Z,12.12
2022-09-18T11:45:29.857Z,11.06
2022-09-18T11:48:12.636Z,10.23
2022-09-18T11:50:42.356Z,10.30
2022-09-18T11:53:23.723Z,10.38
2022-09-18T11:56:03.558Z,10.54
2022-09-18T11:58:55.986Z,10.69
2022-09-18T12:01:26.191Z,10.80
2022-09-18T12:04:27.326Z,10.98
2022-09-18T12:07:03.465Z,10.97
2022-09-18T12:10:19.264Z,11.03
2022-09-18T12:13:28.306Z,10.79
2022-09-18T12:16:04.465Z,10.76
2022-09-18T12:18:41.671Z,10.84
2022-09-18T12:21:14.758Z,10.84
2022-09-18T12:23:50.570Z,10.88
2022-09-18T12:26:29.861Z,11.06
2022-09-18T12:29:34.442Z,11.07
2022-09-18T12:32:34.138Z,10.94
2022-09-18T12:35:25.310Z,10.95
2022-09-18T12:38:19.398Z,10.77
2022-09-18T12:41:11.377Z,10.65
2022-09-18T12:43:45.237Z,10.88
2022-09-18T12:46:14.917Z,10.94
2022-09-18T12:48:48.857Z,11.13
2022-09-18T12:51:43.431Z,11.19
2022-09-18T12:54:35.076Z,11.29
2022-09-18T12:57:29.213Z,11.41
2022-09-18T13:00:09.123Z,11.53
2022-09-18T13:02:56.060Z,11.78
2022-09-18T13:05:43.491Z,12.00
2022-09-18T13:08:28.716Z,12.15
2022-09-18T13:11:13.507Z,12.39
2022-09-18T13:13:52.807Z,12.86
2022-09-18T13:16:35.463Z,13.03
2022-09-18T13:19:07.624Z,12.87
2022-09-18T13:21:44.717Z,12.80
2022-09-18T13:24:18.023Z,12.79
2022-09-18T13:26:47.651Z,12.76
2022-09-18T13:29:45.083Z,12.68
2022-09-18T13:32:13.836Z,13.14
2022-09-18T13:34:48.749Z,13.61
2022-09-18T13:37:19.790Z,14.01
2022-09-18T13:40:10.153Z,14.10
2022-09-18T13:42:42.694Z,14.15
2022-09-18T13:45:26.272Z,14.02
2022-09-18T13:48:04.943Z,14.38
2022-09-18T13:50:34.002Z,13.87
2022-09-18T13:53:02.275Z,13.40
2022-09-18T13:55:39.020Z,13.57
2022-09-18T13:58:33.803Z,13.99
2022-09-18T14:01:03.549Z,14.49
2022-09-18T14:03:41.290Z,14.92
2022-09-18T14:06:37.176Z,15.24
2022-09-18T14:09:27.327Z,15.54
2022-09-18T14:11:54.700Z,15.61
2022-09-18T14:14:25.494Z,15.47
2022-09-18T14:16:52.459Z,15.89
2022-09-18T14:19:31.961Z,15.91
2022-09-18T14:22:00.200Z,15.74
2022-09-18T14:24:40.797Z,16.06
2022-09-18T14:27:26.302Z,16.48
2022-09-18T14:29:58.349Z,16.61
2022-09-18T14:32:27.476Z,16.67
2022-09-18T14:35:39.233Z,16.87
2022-09-18T14:38:27.924Z,16.06
2022-09-18T14:41:24.017Z,16.69
2022-09-18T14:44:01.222Z,15.03
2022-09-18T14:46:28.579Z,14.31
2022-09-18T14:48:58.072Z,13.79
2022-09-18T14:51:28.323Z,13.59
2022-09-18T14:53:57.456Z,13.52
2022-09-18T14:56:32.243Z,13.39
2022-09-18T14:59:16.399Z,13.20
2022-09-18T15:01:45.914Z,13.09
2022-09-18T15:04:16.817Z,12.97
2022-09-18T15:06:50.396Z,12.96
2022-09-18T15:09:26.395Z,12.85
2022-09-18T15:12:02.260Z,12.86
2022-09-18T15:14:44.096Z,12.81
2022-09-18T15:17:23.099Z,12.74
2022-09-18T15:20:02.314Z,12.88
2022-09-18T15:22:30.149Z,12.81
2022-09-18T15:25:00.894Z,12.90
2022-09-18T15:27:28.981Z,12.89
2022-09-18T15:30:00.164Z,15.53
2022-09-18T15:32:35.292Z,17.61
2022-09-18T15:35:05.231Z,17.35
2022-09-18T15:37:32.728Z,18.24
2022-09-18T15:40:07.697Z,18.07
2022-09-18T15:42:50.836Z,18.39
2022-09-18T15:45:22.079Z,18.35
2022-09-18T15:47:49.347Z,16.12
2022-09-18T15:50:16.161Z,13.87
2022-09-18T15:52:51.994Z,13.20
2022-09-18T15:55:22.266Z,12.84
2022-09-18T15:57:53.916Z,12.73
2022-09-18T16:00:29.127Z,12.43
2022-09-18T16:02:58.873Z,12.42
2022-09-18T16:05:28.023Z,12.34
2022-09-18T16:08:02.675Z,12.34
2022-09-18T16:10:38.152Z,12.24
2022-09-18T16:13:07.125Z,12.19
2022-09-18T16:15:34.311Z,11.92
2022-09-18T16:18:05.773Z,11.88
2022-09-18T16:20:47.777Z,11.84
2022-09-18T16:23:24.765Z,11.76
2022-09-18T16:26:11.294Z,11.62
2022-09-18T16:28:56.235Z,11.59
2022-09-18T16:31:27.108Z,11.53
2022-09-18T16:34:30.714Z,11.50
2022-09-18T16:36:57.485Z,11.44
2022-09-18T16:39:26.400Z,11.44
2022-09-18T16:41:53.106Z,11.41
2022-09-18T16:44:19.993Z,11.31
2022-09-18T16:46:58.831Z,11.34
2022-09-18T16:49:30.643Z,11.24
2022-09-18T16:51:57.960Z,11.42
2022-09-18T16:54:25.876Z,11.36
2022-09-18T16:57:02.010Z,11.35
2022-09-18T16:59:31.021Z,11.53
2022-09-18T17:02:04.239Z,11.42
2022-09-18T17:04:32.523Z,11.44
2022-09-18T17:06:59.807Z,11.42
2022-09-18T17:09:27.005Z,11.49
2022-09-18T17:11:56.257Z,11.44
2022-09-18T17:14:23.639Z,11.49
2022-09-18T17:16:52.295Z,11.44
2022-09-18T17:19:19.279Z,11.39
2022-09-18T17:21:45.913Z,11.34
2022-09-18T17:24:13.226Z,11.28
2022-09-18T17:26:41.548Z,11.21
2022-09-18T17:29:13.853Z,11.17
2022-09-18T17:31:40.731Z,11.19
2022-09-18T17:34:07.880Z,11.18
2022-09-18T17:36:36.936Z,11.11
2022-09-18T17:39:04.468Z,11.17
2022-09-18T17:41:32.020Z,11.12
2022-09-18T17:43:58.653Z,11.23
2022-09-18T17:46:25.490Z,11.26
2022-09-18T17:48:59.769Z,11.26
2022-09-18T17:51:31.415Z,11.22
2022-09-18T17:54:02.867Z,11.19
2022-09-18T17:56:30.521Z,11.24
2022-09-18T17:59:01.978Z,11.14
2022-09-18T18:01:29.871Z,11.21
2022-09-18T18:03:57.347Z,11.13
2022-09-18T18:06:27.100Z,11.20
2022-09-18T18:08:54.101Z,11.16
2022-09-18T18:11:22.789Z,11.10
2022-09-18T18:13:53.799Z,11.13
2022-09-18T18:16:23.480Z,11.15
2022-09-18T18:18:54.650Z,11.09
2022-09-18T18:21:22.009Z,11.10
2022-09-18T18:23:49.394Z,11.08
2022-09-18T18:26:16.217Z,11.06
2022-09-18T18:28:44.937Z,11.08
2022-09-18T18:31:15.770Z,11.06
2022-09-18T18:33:43.524Z,11.09
2022-09-18T18:36:22.659Z,11.13
2022-09-18T18:38:52.204Z,11.10
2022-09-18T18:41:20.674Z,11.06
2022-09-18T18:43:53.921Z,11.06
2022-09-18T18:46:21.943Z,11.06
2022-09-18T18:48:56.185Z,11.03
2022-09-18T18:51:22.793Z,11.08
2022-09-18T18:53:49.372Z,11.17
2022-09-18T18:56:16.667Z,11.13
2022-09-18T18:58:44.178Z,11.17
2022-09-18T19:01:15.836Z,11.09
2022-09-18T19:03:49.164Z,11.03
2022-09-18T19:06:15.973Z,11.00
2022-09-18T19:08:47.277Z,10.96
2022-09-18T19:11:15.827Z,10.83
2022-09-18T19:13:45.962Z,10.77
2022-09-18T19:16:13.182Z,10.68
2022-09-18T19:18:40.677Z,10.58
2022-09-18T19:21:07.808Z,10.45
2022-09-18T19:23:35.704Z,10.51
2022-09-18T19:26:05.562Z,10.56
2022-09-18T19:28:32.211Z,10.46
2022-09-18T19:31:04.136Z,10.51
2022-09-18T19:33:33.299Z,10.44
2022-09-18T19:36:07.482Z,10.41
2022-09-18T19:38:37.150Z,10.42
2022-09-18T19:41:13.995Z,10.42
2022-09-18T19:43:41.264Z,10.37
2022-09-18T19:46:11.994Z,10.34
2022-09-18T19:48:39.076Z,10.34
2022-09-18T19:51:08.066Z,10.32
2022-09-18T19:53:35.484Z,10.27
2022-09-18T19:56:22.681Z,10.20
2022-09-18T19:58:56.621Z,10.13
2022-09-18T20:01:24.051Z,10.21
2022-09-18T20:03:55.029Z,10.20
2022-09-18T20:06:23.259Z,10.20
2022-09-18T20:08:50.214Z,10.27
2022-09-18T20:11:17.421Z,10.36
2022-09-18T20:13:44.078Z,10.33
2022-09-18T20:16:10.969Z,10.35
2022-09-18T20:18:38.496Z,10.39
2022-09-18T20:21:11.195Z,10.32
2022-09-18T20:23:38.374Z,10.40
2022-09-18T20:26:13.263Z,10.44
2022-09-18T20:28:40.451Z,10.43
2022-09-18T20:31:09.864Z,10.31
2022-09-18T20:33:38.075Z,10.44
2022-09-18T20:36:06.815Z,10.37
2022-09-18T20:38:35.481Z,10.38
2022-09-18T20:41:06.969Z,10.32
2022-09-18T20:43:34.154Z,10.39
2022-09-18T20:46:04.643Z,10.38
2022-09-18T20:48:33.182Z,10.38
2022-09-18T20:51:00.377Z,10.39
2022-09-18T20:53:28.239Z,10.42
2022-09-18T20:55:58.654Z,10.38
2022-09-18T20:58:25.582Z,10.35
2022-09-18T21:00:57.005Z,10.35
2022-09-18T21:03:24.299Z,10.34
2022-09-18T21:06:07.494Z,10.36
2022-09-18T21:08:46.155Z,10.30
2022-09-18T21:11:15.166Z,10.29
2022-09-18T21:13:49.210Z,10.30
2022-09-18T21:16:18.707Z,10.30
2022-09-18T21:18:47.318Z,10.30
2022-09-18T21:21:15.680Z,10.32
2022-09-18T21:23:58.696Z,10.34
2022-09-18T21:26:51.454Z,10.29
2022-09-18T21:29:21.377Z,10.20
2022-09-18T21:31:51.742Z,10.15
2022-09-18T21:34:27.113Z,10.10
2022-09-18T21:37:12.072Z,10.09
2022-09-18T21:39:39.279Z,10.03
2022-09-18T21:42:07.584Z,9.97
2022-09-18T21:44:36.168Z,9.95
2022-09-18T21:47:06.373Z,9.89
2022-09-18T21:49:33.663Z,9.83
2022-09-18T21:52:06.011Z,9.78
2022-09-18T21:54:33.033Z,9.75
2022-09-18T21:57:00.554Z,9.80
2022-09-18T21:59:33.374Z,9.64
2022-09-18T22:02:00.736Z,9.56
2022-09-18T22:04:30.547Z,9.63
2022-09-18T22:06:59.161Z,9.65
2022-09-18T22:09:33.132Z,9.57
2022-09-18T22:12:01.351Z,9.53
2022-09-18T22:14:31.953Z,9.54
2022-09-18T22:17:06.020Z,9.45
2022-09-18T22:19:34.762Z,9.38
2022-09-18T22:22:02.868Z,9.40
2022-09-18T22:24:30.190Z,9.43
2022-09-18T22:26:59.744Z,9.22
2022-09-18T22:29:32.122Z,9.16
2022-09-18T22:31:59.630Z,9.15
2022-09-18T22:34:35.993Z,9.10
2022-09-18T22:37:03.591Z,9.08
2022-09-18T22:39:30.802Z,9.06
2022-09-18T22:41:57.495Z,8.99
2022-09-18T22:44:24.258Z,8.89
2022-09-18T22:46:52.570Z,8.86
2022-09-18T22:49:21.137Z,8.84
2022-09-18T22:51:47.857Z,8.78
2022-09-18T22:54:16.781Z,8.76
2022-09-18T22:56:48.083Z,8.77
2022-09-18T22:59:16.608Z,8.72
2022-09-18T23:01:49.127Z,8.63
2022-09-18T23:04:18.507Z,8.53
2022-09-18T23:06:49.267Z,8.49
2022-09-18T23:09:17.852Z,8.45
2022-09-18T23:11:46.385Z,8.42
2022-09-18T23:14:18.449Z,8.34
2022-09-18T23:16:45.528Z,8.25
2022-09-18T23:19:17.998Z,8.16
2022-09-18T23:21:45.094Z,8.14
2022-09-18T23:24:14.372Z,8.11
2022-09-18T23:26:43.581Z,8.04
2022-09-18T23:29:21.756Z,8.02
2022-09-18T23:31:52.903Z,7.97
2022-09-18T23:34:25.130Z,7.95
2022-09-18T23:36:54.295Z,7.91
2022-09-18T23:39:31.095Z,7.88
2022-09-18T23:41:59.436Z,7.86
2022-09-18T23:44:28.666Z,7.84
2022-09-18T23:46:55.508Z,7.83
2022-09-18T23:49:23.765Z,7.81
2022-09-18T23:51:52.803Z,7.79
2022-09-18T23:54:22.404Z,7.72
2022-09-18T23:56:52.491Z,7.74
2022-09-18T23:59:23.104Z,7.75
